createdAt,value
2017-09-21T00:01:06.321Z,3.90
2017-09-21T00:03:34.546Z,3.57
2017-09-21T00:06:02.130Z,3.57
2017-09-21T00:08:30.406Z,3.63
2017-09-21T00:10:57.957Z,4.10
2017-09-21T00:13:25.518Z,3.77
2017-09-21T00:15:52.984Z,3.63
2017-09-21T00:18:20.535Z,4.13
2017-09-21T00:20:48.019Z,4.60
2017-09-21T00:23:16.250Z,3.73
2017-09-21T00:25:43.718Z,4.10
2017-09-21T00:28:11.189Z,3.53
2017-09-21T00:30:39.455Z,4.00
2017-09-21T00:33:07.009Z,3.60
2017-09-21T00:35:34.489Z,3.50
2017-09-21T00:38:02.742Z,3.83
2017-09-21T00:40:30.213Z,4.40
2017-09-21T00:42:58.452Z,4.13
2017-09-21T00:45:25.926Z,3.93
2017-09-21T00:47:53.389Z,4.47
2017-09-21T00:50:20.865Z,3.50
2017-09-21T00:52:49.085Z,3.50
2017-09-21T00:55:16.546Z,4.50
2017-09-21T00:57:44.026Z,4.00
2017-09-21T01:00:11.491Z,4.87
2017-09-21T01:02:40.474Z,4.50
2017-09-21T01:05:08.038Z,4.50
2017-09-21T01:07:35.518Z,4.27
2017-09-21T01:10:02.993Z,5.07
2017-09-21T01:12:30.476Z,5.43
2017-09-21T01:14:57.944Z,4.40
2017-09-21T01:17:25.538Z,5.73
2017-09-21T01:19:53.806Z,5.40
2017-09-21T01:22:21.278Z,4.80
2017-09-21T01:24:49.539Z,5.70
2017-09-21T01:27:17.010Z,5.17
2017-09-21T01:29:45.249Z,6.60
2017-09-21T01:32:12.722Z,4.60
2017-09-21T01:34:40.282Z,4.90
2017-09-21T01:37:07.762Z,5.00
2017-09-21T01:39:36.009Z,5.80
2017-09-21T01:42:03.490Z,5.60
2017-09-21T01:44:31.722Z,4.60
2017-09-21T01:46:59.302Z,5.80
2017-09-21T01:49:26.817Z,4.97
2017-09-21T01:51:54.293Z,5.20
2017-09-21T01:54:21.758Z,6.00
2017-09-21T01:56:49.237Z,5.47
2017-09-21T01:59:16.697Z,6.33
2017-09-21T02:01:44.938Z,4.80
2017-09-21T02:04:12.413Z,5.33
2017-09-21T02:06:39.872Z,6.97
2017-09-21T02:09:07.342Z,6.03
2017-09-21T02:11:35.594Z,6.60
2017-09-21T02:14:03.065Z,7.67
2017-09-21T02:16:30.525Z,7.27
2017-09-21T02:18:57.997Z,7.17
2017-09-21T02:21:26.237Z,6.80
2017-09-21T02:23:53.709Z,7.03
2017-09-21T02:26:21.219Z,7.30
2017-09-21T02:28:48.685Z,7.23
2017-09-21T02:31:16.145Z,7.70
2017-09-21T02:33:43.622Z,7.40
2017-09-21T02:36:11.190Z,8.00
2017-09-21T02:38:38.753Z,6.53
2017-09-21T02:41:07.025Z,6.20
2017-09-21T02:43:34.541Z,7.27
2017-09-21T02:46:02.014Z,8.03
2017-09-21T02:48:29.498Z,6.50
2017-09-21T02:50:57.114Z,7.10
2017-09-21T02:53:24.582Z,7.77
2017-09-21T02:55:52.077Z,8.50
2017-09-21T02:58:19.633Z,8.40
2017-09-21T03:00:47.189Z,8.17
2017-09-21T03:03:14.666Z,9.10
2017-09-21T03:05:42.913Z,10.03
2017-09-21T03:08:10.478Z,9.70
2017-09-21T03:10:38.766Z,9.67
2017-09-21T03:13:07.053Z,9.10
2017-09-21T03:15:35.302Z,9.30
2017-09-21T03:18:02.770Z,9.60
2017-09-21T03:20:30.332Z,8.80
2017-09-21T03:22:57.888Z,8.83
2017-09-21T03:25:25.352Z,10.30
2017-09-21T03:27:53.598Z,10.70
2017-09-21T03:30:21.067Z,10.30
2017-09-21T03:32:48.688Z,11.70
2017-09-21T03:35:16.150Z,11.80
2017-09-21T03:37:43.614Z,12.23
2017-09-21T03:40:11.085Z,12.67
2017-09-21T03:42:38.602Z,12.27
2017-09-21T03:45:06.117Z,12.80
2017-09-21T03:47:33.673Z,12.80
2017-09-21T03:50:01.290Z,13.47
2017-09-21T03:52:28.762Z,14.30
2017-09-21T03:54:56.258Z,12.97
2017-09-21T03:57:23.742Z,13.57
2017-09-21T03:59:51.205Z,14.00
2017-09-21T04:02:18.726Z,15.50
2017-09-21T04:04:46.197Z,14.07
2017-09-21T04:07:14.441Z,12.20
2017-09-21T04:09:41.915Z,13.70
2017-09-21T04:12:09.407Z,14.23
2017-09-21T04:14:36.877Z,12.83
2017-09-21T04:17:04.349Z,15.33
2017-09-21T04:19:31.816Z,14.37
2017-09-21T04:21:59.289Z,15.97
2017-09-21T04:24:26.761Z,14.50
2017-09-21T04:26:55.002Z,15.50
2017-09-21T04:29:22.466Z,16.23
2017-09-21T04:31:50.043Z,13.87
2017-09-21T04:34:17.506Z,14.30
2017-09-21T04:36:45.876Z,15.23
2017-09-21T04:39:13.352Z,14.50
2017-09-21T04:41:41.868Z,14.90
2017-09-21T04:44:09.351Z,15.10
2017-09-21T04:46:36.829Z,15.43
2017-09-21T04:49:04.298Z,15.57
2017-09-21T04:51:32.545Z,13.80
2017-09-21T04:54:00.011Z,15.70
2017-09-21T04:56:28.293Z,15.20
2017-09-21T04:58:55.849Z,14.17
2017-09-21T05:01:23.322Z,14.80
2017-09-21T05:03:51.589Z,14.53
2017-09-21T05:06:19.053Z,15.20
2017-09-21T05:08:47.297Z,15.30
2017-09-21T05:11:14.753Z,16.10
2017-09-21T05:13:42.228Z,16.00
2017-09-21T05:16:09.946Z,14.90
2017-09-21T05:18:37.410Z,14.37
2017-09-21T05:21:04.871Z,15.70
2017-09-21T05:23:32.341Z,16.10
2017-09-21T05:26:00.034Z,13.97
2017-09-21T05:28:27.560Z,16.00
2017-09-21T05:30:55.029Z,14.37
2017-09-21T05:33:22.503Z,15.80
2017-09-21T05:35:49.978Z,15.70
2017-09-21T05:38:18.216Z,15.30
2017-09-21T05:40:45.703Z,17.80
2017-09-21T05:43:13.941Z,16.20
2017-09-21T05:45:41.414Z,17.00
2017-09-21T05:48:08.889Z,15.77
2017-09-21T05:50:37.149Z,16.40
2017-09-21T05:53:04.626Z,15.93
2017-09-21T05:55:32.866Z,15.90
2017-09-21T05:58:00.341Z,15.90
2017-09-21T06:00:27.809Z,16.00
2017-09-21T06:02:56.071Z,15.87
2017-09-21T06:05:23.630Z,16.83
2017-09-21T06:07:51.117Z,17.20
2017-09-21T06:10:18.680Z,18.10
2017-09-21T06:12:46.149Z,16.73
2017-09-21T06:15:13.657Z,17.40
2017-09-21T06:17:41.891Z,17.13
2017-09-21T06:20:09.402Z,18.17
2017-09-21T06:22:37.626Z,17.07
2017-09-21T06:25:05.090Z,14.10
2017-09-21T06:27:32.577Z,18.30
2017-09-21T06:30:00.062Z,15.77
2017-09-21T06:32:28.306Z,15.60
2017-09-21T06:34:55.817Z,14.30
2017-09-21T06:37:23.329Z,16.50
2017-09-21T06:39:50.808Z,14.70
2017-09-21T06:42:19.153Z,15.40
2017-09-21T06:44:46.803Z,15.23
2017-09-21T06:47:14.277Z,14.90
2017-09-21T06:49:41.841Z,16.50
2017-09-21T06:52:09.346Z,15.97
2017-09-21T06:54:36.833Z,15.40
2017-09-21T06:57:04.402Z,15.80
2017-09-21T06:59:31.870Z,14.60
2017-09-21T07:01:59.341Z,15.20
2017-09-21T07:04:27.582Z,15.30
2017-09-21T07:06:55.153Z,14.90
2017-09-21T07:09:22.622Z,15.60
2017-09-21T07:11:50.946Z,15.00
2017-09-21T07:14:19.634Z,15.70
2017-09-21T07:16:47.168Z,15.13
2017-09-21T07:19:15.556Z,14.67
2017-09-21T07:21:43.028Z,15.60
2017-09-21T07:24:10.505Z,15.27
2017-09-21T07:26:37.982Z,15.20
2017-09-21T07:29:05.456Z,15.00
2017-09-21T07:31:33.714Z,16.00
2017-09-21T07:34:01.178Z,13.93
2017-09-21T07:36:29.425Z,15.60
2017-09-21T07:38:57.057Z,16.07
2017-09-21T07:41:24.615Z,15.87
2017-09-21T07:43:52.097Z,15.50
2017-09-21T07:46:19.589Z,15.83
2017-09-21T07:48:47.820Z,15.83
2017-09-21T07:51:15.313Z,16.43
2017-09-21T07:53:42.793Z,14.70
2017-09-21T07:56:11.021Z,16.13
2017-09-21T07:58:38.502Z,14.80
2017-09-21T08:01:05.977Z,15.27
2017-09-21T08:03:34.286Z,15.87
2017-09-21T08:06:01.766Z,14.83
2017-09-21T08:08:29.349Z,15.70
2017-09-21T08:10:56.817Z,14.40
2017-09-21T08:13:25.086Z,14.90
2017-09-21T08:15:53.297Z,13.93
2017-09-21T08:18:20.788Z,14.10
2017-09-21T08:20:48.258Z,12.47
2017-09-21T08:23:15.733Z,14.50
2017-09-21T08:25:43.976Z,13.97
2017-09-21T08:28:11.453Z,13.63
2017-09-21T08:30:38.922Z,13.47
2017-09-21T08:33:07.178Z,14.00
2017-09-21T08:35:34.640Z,14.37
2017-09-21T08:38:02.137Z,13.17
2017-09-21T08:40:29.602Z,13.57
2017-09-21T08:42:57.090Z,13.30
2017-09-21T08:45:24.570Z,11.70
2017-09-21T08:47:52.054Z,13.33
2017-09-21T08:50:20.362Z,9.83
2017-09-21T08:52:47.869Z,9.70
2017-09-21T08:55:15.342Z,9.57
2017-09-21T08:57:43.581Z,10.40
2017-09-21T09:00:12.564Z,11.53
2017-09-21T09:02:40.046Z,9.57
2017-09-21T09:05:07.510Z,10.73
2017-09-21T09:07:34.960Z,8.57
2017-09-21T09:10:02.437Z,8.17
2017-09-21T09:12:30.665Z,9.00
2017-09-21T09:14:58.137Z,7.77
2017-09-21T09:17:25.600Z,8.43
2017-09-21T09:19:53.065Z,5.80
2017-09-21T09:22:20.537Z,5.73
2017-09-21T09:24:48.026Z,6.70
2017-09-21T09:27:15.503Z,6.50
2017-09-21T09:29:42.985Z,6.50
2017-09-21T09:32:10.457Z,5.47
2017-09-21T09:34:38.678Z,4.57
2017-09-21T09:37:06.535Z,5.93
2017-09-21T09:39:34.012Z,5.27
2017-09-21T09:42:01.469Z,5.50
2017-09-21T09:44:28.930Z,4.50
2017-09-21T09:46:57.185Z,5.53
2017-09-21T09:49:24.659Z,5.60
2017-09-21T09:51:52.119Z,6.27
2017-09-21T09:54:19.593Z,7.17
2017-09-21T09:56:47.056Z,6.07
2017-09-21T09:59:14.516Z,5.60
2017-09-21T10:01:41.978Z,5.33
2017-09-21T10:04:09.442Z,5.47
2017-09-21T10:06:37.674Z,6.37
2017-09-21T10:09:05.197Z,5.73
2017-09-21T10:11:32.657Z,5.83
2017-09-21T10:14:00.134Z,5.10
2017-09-21T10:16:27.595Z,5.50
2017-09-21T10:18:55.070Z,4.80
2017-09-21T10:21:23.302Z,3.10
2017-09-21T10:23:50.779Z,3.10
2017-09-21T10:26:18.427Z,3.30
2017-09-21T10:28:45.888Z,2.97
2017-09-21T10:31:13.380Z,2.90
2017-09-21T10:33:40.852Z,2.90
2017-09-21T10:36:08.409Z,3.30
2017-09-21T10:38:35.862Z,2.33
2017-09-21T10:41:03.337Z,2.97
2017-09-21T10:43:31.590Z,2.80
2017-09-21T10:46:00.561Z,3.47
2017-09-21T10:48:28.031Z,3.40
2017-09-21T10:50:55.553Z,2.63
2017-09-21T10:53:23.057Z,3.70
2017-09-21T10:55:50.525Z,3.30
2017-09-21T10:58:18.765Z,4.40
2017-09-21T11:00:46.231Z,2.60
2017-09-21T11:03:13.685Z,3.60
2017-09-21T11:05:41.156Z,3.27
2017-09-21T11:08:08.613Z,2.47
2017-09-21T11:10:36.103Z,2.70
2017-09-21T11:13:03.557Z,3.17
2017-09-21T11:15:31.018Z,2.73
2017-09-21T11:17:58.481Z,3.17
2017-09-21T11:20:25.970Z,3.03
2017-09-21T11:22:53.439Z,2.80
2017-09-21T11:25:21.038Z,2.77
2017-09-21T11:27:49.287Z,2.70
2017-09-21T11:30:16.756Z,2.67
2017-09-21T11:32:45.201Z,2.80
2017-09-21T11:35:12.681Z,3.27
2017-09-21T11:37:40.197Z,3.03
2017-09-21T11:40:07.680Z,3.53
2017-09-21T11:42:35.133Z,4.50
2017-09-21T11:45:02.597Z,3.87
2017-09-21T11:47:30.054Z,4.73
2017-09-21T11:49:57.509Z,6.13
2017-09-21T11:52:24.980Z,5.40
2017-09-21T11:54:52.562Z,5.30
2017-09-21T11:57:20.779Z,5.20
2017-09-21T11:59:48.240Z,5.33
2017-09-21T12:02:15.782Z,5.37
2017-09-21T12:04:43.245Z,5.50
2017-09-21T12:07:10.711Z,5.50
2017-09-21T12:09:38.186Z,5.47
2017-09-21T12:12:05.649Z,5.60
2017-09-21T12:14:33.127Z,5.50
2017-09-21T12:17:01.371Z,5.57
2017-09-21T12:19:28.840Z,5.30
2017-09-21T12:21:56.345Z,5.83
2017-09-21T12:24:23.846Z,5.67
2017-09-21T12:26:51.313Z,7.40
2017-09-21T12:29:18.788Z,7.87
2017-09-21T12:31:47.021Z,8.73
2017-09-21T12:34:14.497Z,9.10
2017-09-21T12:36:41.957Z,7.90
2017-09-21T12:39:09.436Z,8.37
2017-09-21T12:41:37.699Z,7.40
2017-09-21T12:44:05.237Z,7.30
2017-09-21T12:46:32.714Z,8.23
2017-09-21T12:49:00.175Z,8.37
2017-09-21T12:51:27.642Z,6.80
2017-09-21T12:53:55.895Z,6.20
2017-09-21T12:56:23.453Z,6.87
2017-09-21T12:58:51.679Z,7.07
2017-09-21T13:01:19.153Z,7.63
2017-09-21T13:03:46.611Z,6.07
2017-09-21T13:06:14.077Z,6.80
2017-09-21T13:08:41.558Z,7.60
2017-09-21T13:11:09.122Z,7.13
2017-09-21T13:13:36.585Z,6.93
2017-09-21T13:16:04.853Z,8.13
2017-09-21T13:18:32.314Z,6.33
2017-09-21T13:21:00.565Z,8.57
2017-09-21T13:23:28.042Z,8.67
2017-09-21T13:25:55.502Z,9.07
2017-09-21T13:28:22.975Z,8.00
2017-09-21T13:30:51.197Z,8.57
2017-09-21T13:33:18.678Z,8.57
2017-09-21T13:35:46.138Z,8.70
2017-09-21T13:38:13.609Z,8.63
2017-09-21T13:40:41.840Z,9.60
2017-09-21T13:43:09.318Z,9.33
2017-09-21T13:45:36.772Z,8.73
2017-09-21T13:48:04.241Z,8.57
2017-09-21T13:50:31.745Z,7.77
2017-09-21T13:52:59.252Z,8.00
2017-09-21T13:55:26.709Z,8.20
2017-09-21T13:57:54.174Z,8.00
2017-09-21T14:00:22.448Z,7.77
2017-09-21T14:02:50.699Z,7.70
2017-09-21T14:05:18.166Z,6.13
2017-09-21T14:07:45.642Z,8.60
2017-09-21T14:10:13.869Z,8.30
2017-09-21T14:12:41.328Z,8.07
2017-09-21T14:15:08.806Z,6.90
2017-09-21T14:17:36.429Z,6.90
2017-09-21T14:20:03.889Z,7.40
2017-09-21T14:22:31.352Z,7.40
2017-09-21T14:24:58.826Z,8.53
2017-09-21T14:27:26.298Z,6.93
2017-09-21T14:29:53.774Z,6.87
2017-09-21T14:32:22.001Z,7.63
2017-09-21T14:34:49.486Z,7.80
2017-09-21T14:37:16.950Z,9.03
2017-09-21T14:39:44.417Z,7.87
2017-09-21T14:42:12.649Z,6.80
2017-09-21T14:44:40.133Z,6.70
2017-09-21T14:47:08.410Z,7.07
2017-09-21T14:49:35.874Z,6.80
2017-09-21T14:52:03.357Z,5.90
2017-09-21T14:54:31.598Z,6.60
2017-09-21T14:56:59.155Z,7.17
2017-09-21T14:59:26.638Z,6.20
2017-09-21T15:01:54.867Z,6.00
2017-09-21T15:04:22.342Z,6.00
2017-09-21T15:06:49.815Z,5.90
2017-09-21T15:09:18.133Z,6.33
2017-09-21T15:11:45.613Z,7.00
2017-09-21T15:14:13.073Z,6.80
2017-09-21T15:16:40.545Z,6.60
2017-09-21T15:19:08.017Z,6.30
2017-09-21T15:21:35.485Z,6.23
2017-09-21T15:24:03.745Z,7.57
2017-09-21T15:26:31.210Z,6.37
2017-09-21T15:31:32.457Z,5.90
2017-09-21T15:33:59.936Z,7.30
2017-09-21T15:36:28.165Z,7.30
2017-09-21T15:38:55.629Z,6.80
2017-09-21T15:41:23.090Z,6.60
2017-09-21T15:43:50.566Z,6.17
2017-09-21T15:46:18.038Z,6.13
2017-09-21T15:48:46.269Z,6.00
2017-09-21T15:51:13.721Z,5.70
2017-09-21T15:53:41.192Z,6.37
2017-09-21T15:56:08.657Z,7.07
2017-09-21T15:58:36.117Z,5.67
2017-09-21T16:01:03.593Z,7.33
2017-09-21T16:03:31.826Z,10.50
2017-09-21T16:05:59.298Z,9.10
2017-09-21T16:08:27.525Z,6.73
2017-09-21T16:10:54.995Z,6.90
2017-09-21T16:13:22.482Z,6.70
2017-09-21T16:15:50.001Z,6.50
2017-09-21T16:18:17.457Z,6.10
2017-09-21T16:20:44.930Z,7.10
2017-09-21T16:23:12.467Z,6.47
2017-09-21T16:25:39.957Z,7.40
2017-09-21T16:28:07.437Z,6.70
2017-09-21T16:30:35.714Z,6.20
2017-09-21T16:33:03.602Z,6.57
2017-09-21T16:35:31.848Z,6.10
2017-09-21T16:37:59.314Z,7.00
2017-09-21T16:40:27.641Z,5.87
2017-09-21T16:42:55.109Z,5.90
2017-09-21T16:45:22.592Z,6.20
2017-09-21T16:47:50.070Z,6.00
2017-09-21T16:50:17.525Z,4.90
2017-09-21T16:52:45.002Z,5.33
2017-09-21T16:55:13.299Z,6.23
2017-09-21T16:57:40.796Z,6.43
2017-09-21T17:00:08.322Z,5.47
2017-09-21T17:02:35.801Z,6.30
2017-09-21T17:05:03.373Z,6.30
2017-09-21T17:07:30.890Z,6.00
2017-09-21T17:09:58.459Z,7.20
2017-09-21T17:12:25.935Z,6.70
2017-09-21T17:14:53.389Z,6.50
2017-09-21T17:17:20.968Z,7.37
2017-09-21T17:19:48.528Z,7.30
2017-09-21T17:22:16.088Z,6.60
2017-09-21T17:24:43.560Z,6.87
2017-09-21T17:27:11.793Z,8.20
2017-09-21T17:29:39.280Z,7.47
2017-09-21T17:32:07.517Z,9.70
2017-09-21T17:34:35.006Z,9.07
2017-09-21T17:37:02.512Z,8.37
2017-09-21T17:39:30.020Z,8.43
2017-09-21T17:41:57.511Z,7.80
2017-09-21T17:44:25.022Z,7.53
2017-09-21T17:46:52.485Z,7.00
2017-09-21T17:49:19.969Z,7.60
2017-09-21T17:51:48.223Z,7.40
2017-09-21T17:54:17.201Z,7.43
2017-09-21T17:56:44.668Z,7.23
2017-09-21T17:59:12.210Z,7.07
2017-09-21T18:01:39.686Z,7.23
2017-09-21T18:04:07.164Z,8.37
2017-09-21T18:06:35.384Z,8.47
2017-09-21T18:09:02.890Z,7.73
2017-09-21T18:11:31.118Z,8.30
2017-09-21T18:13:58.598Z,7.97
2017-09-21T18:16:26.074Z,8.90
2017-09-21T18:18:53.534Z,10.20
2017-09-21T18:21:21.849Z,9.30
2017-09-21T18:23:49.351Z,10.20
2017-09-21T18:26:16.853Z,9.63
2017-09-21T18:28:44.335Z,10.37
2017-09-21T18:31:11.811Z,11.93
2017-09-21T18:33:39.268Z,11.37
2017-09-21T18:36:06.747Z,13.43
2017-09-21T18:38:35.010Z,13.90
2017-09-21T18:41:02.480Z,14.03
2017-09-21T18:43:30.714Z,14.03
2017-09-21T18:45:58.177Z,14.50
2017-09-21T18:48:25.658Z,14.17
2017-09-21T18:50:53.128Z,12.90
2017-09-21T18:53:21.361Z,11.90
2017-09-21T18:55:48.842Z,12.27
2017-09-21T18:58:16.315Z,11.00
2017-09-21T19:00:44.557Z,10.47
2017-09-21T19:03:12.033Z,11.13
2017-09-21T19:05:39.517Z,11.23
2017-09-21T19:08:07.822Z,10.23
2017-09-21T19:10:35.282Z,10.30
2017-09-21T19:13:02.758Z,10.53
2017-09-21T19:15:30.222Z,9.40
2017-09-21T19:17:57.749Z,10.33
2017-09-21T19:20:25.308Z,10.37
2017-09-21T19:22:52.777Z,9.87
2017-09-21T19:25:20.237Z,9.23
2017-09-21T19:27:47.709Z,10.60
2017-09-21T19:30:15.835Z,10.23
2017-09-21T19:32:43.409Z,10.03
2017-09-21T19:35:10.884Z,9.57
2017-09-21T19:37:38.353Z,10.90
2017-09-21T19:40:05.824Z,10.87
2017-09-21T19:42:33.313Z,11.37
2017-09-21T19:45:00.780Z,12.00
2017-09-21T19:47:28.261Z,12.07
2017-09-21T19:49:55.734Z,12.00
2017-09-21T19:52:23.224Z,13.27
2017-09-21T19:54:51.465Z,11.37
2017-09-21T19:57:18.952Z,12.33
2017-09-21T19:59:46.424Z,12.70
2017-09-21T20:02:14.707Z,12.73
2017-09-21T20:04:43.136Z,12.00
2017-09-21T20:07:10.629Z,12.30
2017-09-21T20:09:38.867Z,12.50
2017-09-21T20:12:06.369Z,12.97
2017-09-21T20:14:34.672Z,13.30
2017-09-21T20:17:02.183Z,12.60
2017-09-21T20:19:29.661Z,13.77
2017-09-21T20:21:57.901Z,13.40
2017-09-21T20:24:25.381Z,13.90
2017-09-21T20:26:53.622Z,12.03
2017-09-21T20:29:21.129Z,11.77
2017-09-21T20:31:49.365Z,13.83
2017-09-21T20:34:16.850Z,13.03
2017-09-21T20:36:45.101Z,14.30
2017-09-21T20:39:14.193Z,14.77
2017-09-21T20:41:41.669Z,14.90
2017-09-21T20:44:09.221Z,14.23
2017-09-21T20:46:36.694Z,14.10
2017-09-21T20:49:05.314Z,14.70
2017-09-21T20:51:32.789Z,13.07
2017-09-21T20:54:00.335Z,14.97
2017-09-21T20:56:27.841Z,14.27
2017-09-21T20:58:56.092Z,15.50
2017-09-21T21:01:24.762Z,15.87
2017-09-21T21:03:53.438Z,16.60
2017-09-21T21:06:21.015Z,14.70
2017-09-21T21:08:48.544Z,14.67
2017-09-21T21:11:16.014Z,15.10
2017-09-21T21:13:43.477Z,16.43
2017-09-21T21:16:10.949Z,16.10
2017-09-21T21:18:38.439Z,16.30
2017-09-21T21:21:06.748Z,14.83
2017-09-21T21:23:34.209Z,17.13
2017-09-21T21:26:01.682Z,18.00
2017-09-21T21:28:29.218Z,17.50
2017-09-21T21:30:56.685Z,17.20
2017-09-21T21:33:24.153Z,16.60
2017-09-21T21:35:51.626Z,16.17
2017-09-21T21:38:19.094Z,15.57
2017-09-21T21:40:46.573Z,16.90
2017-09-21T21:43:14.821Z,17.40
2017-09-21T21:45:42.297Z,16.10
2017-09-21T21:48:10.565Z,16.23
2017-09-21T21:50:38.038Z,16.43
2017-09-21T21:53:06.288Z,14.70
2017-09-21T21:55:33.797Z,14.37
2017-09-21T21:58:01.275Z,15.23
2017-09-21T22:00:28.738Z,15.90
2017-09-21T22:02:56.212Z,15.80
2017-09-21T22:05:23.680Z,13.97
2017-09-21T22:07:51.931Z,15.67
2017-09-21T22:10:19.497Z,15.33
2017-09-21T22:12:47.073Z,15.30
2017-09-21T22:15:15.365Z,14.80
2017-09-21T22:17:43.604Z,13.40
2017-09-21T22:20:11.140Z,14.77
2017-09-21T22:22:38.615Z,13.67
2017-09-21T22:25:06.536Z,14.60
2017-09-21T22:27:34.050Z,13.60
2017-09-21T22:30:01.531Z,13.83
2017-09-21T22:32:29.777Z,14.20
2017-09-21T22:34:57.533Z,13.60
2017-09-21T22:37:26.042Z,12.67
2017-09-21T22:39:53.509Z,13.17
2017-09-21T22:42:21.770Z,12.80
2017-09-21T22:44:50.014Z,14.77
2017-09-21T22:47:17.758Z,14.73
2017-09-21T22:49:45.222Z,13.97
2017-09-21T22:52:12.701Z,13.50
2017-09-21T22:54:40.204Z,13.80
2017-09-21T22:57:07.685Z,11.27
2017-09-21T22:59:35.344Z,12.93
2017-09-21T23:02:02.809Z,11.90
2017-09-21T23:04:30.282Z,12.37
2017-09-21T23:06:57.771Z,12.00
2017-09-21T23:09:26.007Z,12.33
2017-09-21T23:11:53.494Z,12.00
2017-09-21T23:14:20.969Z,10.60
2017-09-21T23:16:49.231Z,10.70
2017-09-21T23:19:16.711Z,10.30
2017-09-21T23:21:44.941Z,10.43
2017-09-21T23:24:12.419Z,11.03
2017-09-21T23:26:39.925Z,10.67
2017-09-21T23:29:07.391Z,10.23
2017-09-21T23:31:34.877Z,10.43
2017-09-21T23:34:02.365Z,9.97
2017-09-21T23:36:30.593Z,10.00
2017-09-21T23:38:58.834Z,10.77
2017-09-21T23:41:26.301Z,9.63
2017-09-21T23:43:53.773Z,9.30
2017-09-21T23:46:21.241Z,10.07
2017-09-21T23:48:48.744Z,9.87
2017-09-21T23:51:16.965Z,9.30
2017-09-21T23:53:44.437Z,10.17
2017-09-21T23:56:11.905Z,9.50
2017-09-21T23:58:39.383Z,8.67
